createdAt,value
2017-03-13T00:00:34.511Z,21.22
2017-03-13T00:01:15.005Z,21.3
2017-03-13T00:01:55.496Z,21.33
2017-03-13T00:02:36.156Z,21.3
2017-03-13T00:03:16.647Z,21.27
2017-03-13T00:03:57.131Z,21.25
2017-03-13T00:04:37.630Z,21.3
2017-03-13T00:05:18.126Z,21.27
2017-03-13T00:05:58.610Z,21.33
2017-03-13T00:06:39.091Z,21.3
2017-03-13T00:07:19.581Z,21.27
2017-03-13T00:08:00.068Z,21.25
2017-03-13T00:08:40.562Z,21.31
2017-03-13T00:09:21.048Z,21.31
2017-03-13T00:10:01.537Z,21.25
2017-03-13T00:10:42.020Z,21.31
2017-03-13T00:11:22.501Z,21.31
2017-03-13T00:12:03.014Z,21.21
2017-03-13T00:12:43.494Z,21.28
2017-03-13T00:13:23.979Z,21.28
2017-03-13T00:14:04.464Z,21.28
2017-03-13T00:14:44.943Z,21.25
2017-03-13T00:15:25.441Z,21.23
2017-03-13T00:16:05.939Z,21.25
2017-03-13T00:16:46.422Z,21.23
2017-03-13T00:17:26.904Z,21.28
2017-03-13T00:18:07.379Z,21.28
2017-03-13T00:18:47.870Z,21.25
2017-03-13T00:19:28.361Z,21.23
2017-03-13T00:20:08.831Z,21.25
2017-03-13T00:20:49.328Z,21.27
2017-03-13T00:21:29.846Z,21.23
2017-03-13T00:22:10.350Z,21.31
2017-03-13T00:22:50.838Z,21.33
2017-03-13T00:23:31.322Z,21.25
2017-03-13T00:24:11.809Z,21.25
2017-03-13T00:24:52.300Z,21.25
2017-03-13T00:25:32.792Z,21.33
2017-03-13T00:26:13.297Z,21.31
2017-03-13T00:26:53.794Z,21.31
2017-03-13T00:27:34.279Z,21.18
2017-03-13T00:28:14.776Z,21.27
2017-03-13T00:28:55.260Z,21.25
2017-03-13T00:29:35.764Z,21.3
2017-03-13T00:30:16.255Z,21.22
2017-03-13T00:30:56.741Z,21.27
2017-03-13T00:31:37.244Z,21.23
2017-03-13T00:32:17.741Z,21.23
2017-03-13T00:32:58.240Z,21.22
2017-03-13T00:33:38.724Z,21.31
2017-03-13T00:34:19.205Z,21.23
2017-03-13T00:34:59.687Z,21.3
2017-03-13T00:35:40.171Z,21.3
2017-03-13T00:36:20.689Z,21.28
2017-03-13T00:37:01.158Z,21.27
2017-03-13T00:37:41.649Z,21.27
2017-03-13T00:38:22.136Z,21.27
2017-03-13T00:39:02.631Z,21.33
2017-03-13T00:39:43.136Z,21.3
2017-03-13T00:40:23.623Z,21.31
2017-03-13T00:41:04.133Z,21.18
2017-03-13T00:41:44.616Z,21.25
2017-03-13T00:42:25.110Z,21.28
2017-03-13T00:43:05.591Z,21.25
2017-03-13T00:43:46.134Z,21.22
2017-03-13T00:44:26.627Z,21.22
2017-03-13T00:45:07.126Z,21.25
2017-03-13T00:45:47.612Z,21.23
2017-03-13T00:46:28.098Z,21.28
2017-03-13T00:47:08.583Z,21.34
2017-03-13T00:47:49.076Z,21.25
2017-03-13T00:48:30.080Z,21.27
2017-03-13T00:49:10.550Z,21.21
2017-03-13T00:49:51.053Z,21.25
2017-03-13T00:50:31.533Z,21.27
2017-03-13T00:51:12.033Z,21.3
2017-03-13T00:51:52.538Z,21.21
2017-03-13T00:52:33.033Z,21.27
2017-03-13T00:53:13.536Z,21.22
2017-03-13T00:53:54.008Z,21.25
2017-03-13T00:54:34.499Z,21.21
2017-03-13T00:55:14.979Z,21.21
2017-03-13T00:55:55.555Z,21.22
2017-03-13T00:56:36.042Z,21.18
2017-03-13T00:57:16.544Z,21.19
2017-03-13T00:57:57.015Z,21.21
2017-03-13T00:58:37.504Z,21.21
2017-03-13T00:59:17.998Z,21.25
2017-03-13T00:59:58.519Z,21.19
2017-03-13T01:00:39.008Z,21.18
2017-03-13T01:01:19.501Z,21.18
2017-03-13T01:01:59.982Z,21.22
2017-03-13T01:02:40.487Z,21.18
2017-03-13T01:03:20.972Z,21.21
2017-03-13T01:04:01.756Z,21.22
2017-03-13T01:04:42.234Z,21.16
2017-03-13T01:05:22.724Z,21.16
2017-03-13T01:06:03.220Z,21.19
2017-03-13T01:06:43.722Z,21.22
2017-03-13T01:07:24.210Z,21.19
2017-03-13T01:08:04.716Z,21.16
2017-03-13T01:08:45.199Z,21.18
2017-03-13T01:09:25.683Z,21.18
2017-03-13T01:10:06.173Z,21.13
2017-03-13T01:10:46.671Z,21.19
2017-03-13T01:11:27.166Z,21.19
2017-03-13T01:12:07.647Z,21.19
2017-03-13T01:12:48.147Z,21.16
2017-03-13T01:13:28.644Z,21.18
2017-03-13T01:14:09.124Z,21.21
2017-03-13T01:14:49.615Z,21.16
2017-03-13T01:15:30.108Z,21.15
2017-03-13T01:16:10.590Z,21.16
2017-03-13T01:16:51.066Z,21.09
2017-03-13T01:17:31.557Z,21.18
2017-03-13T01:18:12.054Z,21.16
2017-03-13T01:18:52.540Z,21.23
2017-03-13T01:19:33.022Z,21.18
2017-03-13T01:20:13.505Z,21.19
2017-03-13T01:20:53.980Z,21.21
2017-03-13T01:21:34.474Z,21.16
2017-03-13T01:22:14.983Z,21.11
2017-03-13T01:22:55.471Z,21.12
2017-03-13T01:23:35.956Z,21.15
2017-03-13T01:24:16.446Z,21.12
2017-03-13T01:24:56.950Z,21.16
2017-03-13T01:25:37.423Z,21.22
2017-03-13T01:26:17.911Z,21.19
2017-03-13T01:26:58.400Z,21.21
2017-03-13T01:27:38.877Z,21.12
2017-03-13T01:28:19.367Z,21.22
2017-03-13T01:28:59.873Z,21.13
2017-03-13T01:29:40.366Z,21.11
2017-03-13T01:30:20.844Z,21.12
2017-03-13T01:31:01.340Z,21.11
2017-03-13T01:31:41.822Z,21.21
2017-03-13T01:32:22.322Z,21.19
2017-03-13T01:33:02.800Z,21.22
2017-03-13T01:33:43.291Z,21.09
2017-03-13T01:34:23.763Z,21.19
2017-03-13T01:35:04.288Z,21.16
2017-03-13T01:35:44.777Z,21.18
2017-03-13T01:36:25.259Z,21.08
2017-03-13T01:37:05.777Z,21.11
2017-03-13T01:37:46.285Z,21.13
2017-03-13T01:38:26.764Z,21.11
2017-03-13T01:39:07.245Z,21.11
2017-03-13T01:39:47.732Z,21.21
2017-03-13T01:40:28.217Z,21.22
2017-03-13T01:41:08.705Z,21.21
2017-03-13T01:41:49.210Z,21.15
2017-03-13T01:42:29.693Z,21.11
2017-03-13T01:43:10.186Z,21.08
2017-03-13T01:43:50.659Z,21.09
2017-03-13T01:44:31.258Z,21.13
2017-03-13T01:45:11.753Z,21.15
2017-03-13T01:45:52.249Z,21.13
2017-03-13T01:46:32.748Z,21.08
2017-03-13T01:47:13.239Z,21.21
2017-03-13T01:47:53.731Z,21.16
2017-03-13T01:48:34.201Z,21.09
2017-03-13T01:49:14.689Z,21.19
2017-03-13T01:49:55.174Z,21.19
2017-03-13T01:50:35.660Z,21.06
2017-03-13T01:51:16.143Z,21.13
2017-03-13T01:51:56.622Z,21.11
2017-03-13T01:52:37.110Z,21.13
2017-03-13T01:53:17.610Z,21.11
2017-03-13T01:53:58.106Z,21.21
2017-03-13T01:54:38.616Z,21.08
2017-03-13T01:55:19.093Z,21.16
2017-03-13T01:55:59.583Z,21.19
2017-03-13T01:56:40.075Z,21.18
2017-03-13T01:57:20.563Z,21.12
2017-03-13T01:58:01.064Z,21.12
2017-03-13T01:58:41.537Z,21.18
2017-03-13T01:59:22.021Z,21.19
2017-03-13T02:00:02.510Z,21.06
2017-03-13T02:00:42.985Z,21.09
2017-03-13T02:01:23.474Z,21.09
2017-03-13T02:02:03.958Z,21.19
2017-03-13T02:02:44.606Z,21.16
2017-03-13T02:03:25.074Z,21.21
2017-03-13T02:04:05.573Z,21.11
2017-03-13T02:04:46.672Z,21.08
2017-03-13T02:05:27.168Z,21.11
2017-03-13T02:06:07.677Z,21.08
2017-03-13T02:06:48.136Z,21.18
2017-03-13T02:07:29.319Z,21.09
2017-03-13T02:08:09.792Z,21.04
2017-03-13T02:08:50.280Z,21.06
2017-03-13T02:09:30.759Z,21.11
2017-03-13T02:10:11.799Z,21.09
2017-03-13T02:10:52.287Z,21.11
2017-03-13T02:11:32.811Z,21.15
2017-03-13T02:12:13.297Z,21.21
2017-03-13T02:12:53.795Z,21.19
2017-03-13T02:13:34.286Z,21.12
2017-03-13T02:14:14.787Z,21.09
2017-03-13T02:14:55.250Z,21.06
2017-03-13T02:15:35.734Z,21.11
2017-03-13T02:16:16.233Z,21.09
2017-03-13T02:16:56.732Z,21.13
2017-03-13T02:17:37.229Z,21.08
2017-03-13T02:18:17.722Z,21.16
2017-03-13T02:18:58.236Z,21.12
2017-03-13T02:19:38.696Z,21.21
2017-03-13T02:20:19.344Z,21.08
2017-03-13T02:20:59.830Z,21.12
2017-03-13T02:21:40.331Z,21.09
2017-03-13T02:22:20.814Z,21.16
2017-03-13T02:23:01.304Z,21.12
2017-03-13T02:23:41.795Z,21.13
2017-03-13T02:24:22.295Z,21.18
2017-03-13T02:25:02.786Z,21.16
2017-03-13T02:25:43.264Z,21.13
2017-03-13T02:26:23.755Z,21.18
2017-03-13T02:27:04.240Z,21.12
2017-03-13T02:27:44.752Z,21.11
2017-03-13T02:28:25.252Z,21.09
2017-03-13T02:29:05.739Z,21.11
2017-03-13T02:29:46.223Z,21.06
2017-03-13T02:30:26.696Z,21.06
2017-03-13T02:31:07.183Z,21.16
2017-03-13T02:31:47.678Z,21.06
2017-03-13T02:32:28.156Z,21.18
2017-03-13T02:33:08.646Z,21.16
2017-03-13T02:33:49.140Z,21.04
2017-03-13T02:34:29.627Z,21.09
2017-03-13T02:35:10.118Z,21.11
2017-03-13T02:35:50.602Z,21.06
2017-03-13T02:36:31.094Z,21.08
2017-03-13T02:37:11.591Z,21.12
2017-03-13T02:37:52.074Z,21.11
2017-03-13T02:38:32.582Z,21.09
2017-03-13T02:39:13.060Z,21.11
2017-03-13T02:39:53.557Z,21.12
2017-03-13T02:40:34.569Z,21.06
2017-03-13T02:41:15.063Z,21.11
2017-03-13T02:41:55.541Z,21.11
2017-03-13T02:42:36.039Z,21.01
2017-03-13T02:43:16.547Z,21.04
2017-03-13T02:43:57.038Z,21.11
2017-03-13T02:44:37.540Z,21.11
2017-03-13T02:45:18.045Z,21.08
2017-03-13T02:45:58.528Z,21.06
2017-03-13T02:46:39.010Z,21.09
2017-03-13T02:47:19.511Z,21.09
2017-03-13T02:47:59.988Z,21.09
2017-03-13T02:48:40.471Z,21.06
2017-03-13T02:49:20.964Z,21.15
2017-03-13T02:50:01.433Z,21.11
2017-03-13T02:50:41.930Z,21.15
2017-03-13T02:51:22.406Z,21.13
2017-03-13T02:52:02.881Z,21.06
2017-03-13T02:52:43.356Z,21.03
2017-03-13T02:53:23.854Z,21.06
2017-03-13T02:54:04.335Z,21.08
2017-03-13T02:54:44.812Z,21.01
2017-03-13T02:55:25.415Z,21
2017-03-13T02:56:05.899Z,21.06
2017-03-13T02:56:46.372Z,21.06
2017-03-13T02:57:26.874Z,21.11
2017-03-13T02:58:07.362Z,21.15
2017-03-13T02:58:47.857Z,21.12
2017-03-13T02:59:28.338Z,20.94
2017-03-13T03:00:08.828Z,21.06
2017-03-13T03:00:49.303Z,21.08
2017-03-13T03:01:29.775Z,21.13
2017-03-13T03:02:10.258Z,21.09
2017-03-13T03:02:50.749Z,21.06
2017-03-13T03:03:31.238Z,21
2017-03-13T03:04:11.746Z,20.98
2017-03-13T03:04:52.230Z,21.03
2017-03-13T03:05:32.735Z,20.98
2017-03-13T03:06:13.220Z,21.08
2017-03-13T03:06:53.698Z,21
2017-03-13T03:07:34.211Z,21.09
2017-03-13T03:08:14.700Z,21.11
2017-03-13T03:08:55.188Z,21.09
2017-03-13T03:09:35.684Z,21.01
2017-03-13T03:10:16.179Z,20.97
2017-03-13T03:10:56.668Z,21.08
2017-03-13T03:11:37.165Z,21.01
2017-03-13T03:12:17.655Z,21.11
2017-03-13T03:12:58.145Z,21.08
2017-03-13T03:13:38.634Z,21.08
2017-03-13T03:14:19.128Z,21.06
2017-03-13T03:14:59.628Z,21.11
2017-03-13T03:15:40.092Z,21.03
2017-03-13T03:16:20.795Z,21.08
2017-03-13T03:17:01.283Z,21.06
2017-03-13T03:17:41.764Z,21.01
2017-03-13T03:18:22.274Z,20.96
2017-03-13T03:19:02.746Z,20.96
2017-03-13T03:19:43.249Z,20.94
2017-03-13T03:20:23.751Z,20.98
2017-03-13T03:21:04.237Z,20.98
2017-03-13T03:21:44.727Z,21.04
2017-03-13T03:22:25.220Z,20.98
2017-03-13T03:23:05.728Z,20.97
2017-03-13T03:23:46.213Z,21.01
2017-03-13T03:24:26.721Z,20.96
2017-03-13T03:25:07.203Z,20.91
2017-03-13T03:25:47.685Z,21
2017-03-13T03:26:28.169Z,20.98
2017-03-13T03:27:08.672Z,20.94
2017-03-13T03:27:49.171Z,21.01
2017-03-13T03:28:29.629Z,20.93
2017-03-13T03:29:10.114Z,20.94
2017-03-13T03:30:47.523Z,21.11
2017-03-13T03:31:28.508Z,21
2017-03-13T03:32:08.981Z,20.97
2017-03-13T03:32:50.122Z,20.97
2017-03-13T03:33:30.605Z,20.98
2017-03-13T03:34:11.096Z,20.98
2017-03-13T03:34:51.584Z,20.97
2017-03-13T03:35:32.053Z,20.98
2017-03-13T03:36:12.550Z,20.91
2017-03-13T03:36:53.032Z,20.97
2017-03-13T03:37:33.539Z,21.01
2017-03-13T03:38:14.036Z,20.97
2017-03-13T03:38:54.516Z,20.97
2017-03-13T03:39:35.014Z,20.94
2017-03-13T03:40:15.477Z,20.97
2017-03-13T03:40:55.985Z,20.96
2017-03-13T03:41:36.492Z,20.97
2017-03-13T03:42:16.975Z,20.96
2017-03-13T03:42:57.464Z,20.96
2017-03-13T03:43:38.008Z,21
2017-03-13T03:44:18.502Z,20.94
2017-03-13T03:44:59.006Z,21
2017-03-13T03:45:39.478Z,20.94
2017-03-13T03:46:19.970Z,20.96
2017-03-13T03:47:00.459Z,20.97
2017-03-13T03:47:40.947Z,20.98
2017-03-13T03:48:21.449Z,20.94
2017-03-13T03:49:01.918Z,20.94
2017-03-13T03:49:42.403Z,20.93
2017-03-13T03:50:22.898Z,20.94
2017-03-13T03:51:03.381Z,20.97
2017-03-13T03:51:44.357Z,20.96
2017-03-13T03:52:24.860Z,20.94
2017-03-13T03:53:05.352Z,20.98
2017-03-13T03:53:45.857Z,20.97
2017-03-13T03:54:26.364Z,20.97
2017-03-13T03:55:06.833Z,20.91
2017-03-13T03:55:47.318Z,20.94
2017-03-13T03:56:27.827Z,21
2017-03-13T03:57:08.321Z,21
2017-03-13T03:57:48.850Z,20.97
2017-03-13T03:58:29.314Z,20.97
2017-03-13T03:59:09.825Z,20.94
2017-03-13T03:59:50.447Z,21.03
2017-03-13T04:00:30.923Z,21
2017-03-13T04:01:11.412Z,20.97
2017-03-13T04:01:52.062Z,20.97
2017-03-13T04:02:32.557Z,20.97
2017-03-13T04:03:13.058Z,20.93
2017-03-13T04:03:53.542Z,20.98
2017-03-13T04:04:34.033Z,20.98
2017-03-13T04:05:14.517Z,20.94
2017-03-13T04:05:55.017Z,20.93
2017-03-13T04:06:35.501Z,20.98
2017-03-13T04:07:16.689Z,20.91
2017-03-13T04:07:56.581Z,20.93
2017-03-13T04:08:37.069Z,20.94
2017-03-13T04:09:17.574Z,20.9
2017-03-13T04:09:58.073Z,20.93
2017-03-13T04:10:38.569Z,20.93
2017-03-13T04:11:19.074Z,20.97
2017-03-13T04:11:59.548Z,20.93
2017-03-13T04:12:40.044Z,20.96
2017-03-13T04:13:20.530Z,20.97
2017-03-13T04:14:01.025Z,21
2017-03-13T04:14:41.509Z,20.93
2017-03-13T04:15:21.996Z,20.94
2017-03-13T04:16:02.495Z,20.93
2017-03-13T04:16:43.560Z,20.93
2017-03-13T04:17:24.022Z,20.91
2017-03-13T04:18:04.555Z,21.03
2017-03-13T04:18:45.029Z,20.97
2017-03-13T04:19:25.526Z,20.97
2017-03-13T04:20:06.026Z,20.96
2017-03-13T04:20:46.523Z,20.93
2017-03-13T04:21:27.027Z,20.94
2017-03-13T04:22:08.064Z,20.94
2017-03-13T04:22:48.549Z,20.93
2017-03-13T04:23:29.064Z,21
2017-03-13T04:24:09.533Z,20.93
2017-03-13T04:24:50.026Z,20.94
2017-03-13T04:25:30.533Z,20.98
2017-03-13T04:26:11.023Z,20.96
2017-03-13T04:26:51.521Z,20.94
2017-03-13T04:27:32.037Z,20.91
2017-03-13T04:28:12.528Z,20.94
2017-03-13T04:28:53.019Z,20.93
2017-03-13T04:29:33.505Z,20.93
2017-03-13T04:30:13.982Z,20.91
2017-03-13T04:30:54.476Z,20.94
2017-03-13T04:31:34.978Z,20.91
2017-03-13T04:32:15.453Z,20.94
2017-03-13T04:32:55.945Z,20.91
2017-03-13T04:33:36.437Z,20.94
2017-03-13T04:34:16.909Z,20.98
2017-03-13T04:34:57.400Z,20.91
2017-03-13T04:35:37.889Z,20.91
2017-03-13T04:36:18.530Z,20.93
2017-03-13T04:36:58.998Z,20.93
2017-03-13T04:37:39.495Z,20.93
2017-03-13T04:38:19.963Z,20.96
2017-03-13T04:39:00.461Z,20.93
2017-03-13T04:39:40.944Z,20.9
2017-03-13T04:40:21.427Z,20.93
2017-03-13T04:41:01.911Z,20.86
2017-03-13T04:41:42.419Z,20.94
2017-03-13T04:42:22.914Z,20.94
2017-03-13T04:43:03.416Z,20.88
2017-03-13T04:43:43.907Z,20.9
2017-03-13T04:44:24.388Z,20.9
2017-03-13T04:45:04.865Z,20.91
2017-03-13T04:45:45.357Z,20.93
2017-03-13T04:46:26.384Z,20.88
2017-03-13T04:47:07.781Z,20.88
2017-03-13T04:47:48.652Z,20.91
2017-03-13T04:48:29.140Z,20.88
2017-03-13T04:49:09.656Z,20.86
2017-03-13T04:49:50.144Z,20.93
2017-03-13T04:50:30.630Z,20.88
2017-03-13T04:51:11.124Z,20.97
2017-03-13T04:51:51.604Z,20.88
2017-03-13T04:52:32.096Z,20.9
2017-03-13T04:53:12.590Z,20.94
2017-03-13T04:53:53.097Z,20.93
2017-03-13T04:54:33.596Z,20.86
2017-03-13T04:55:14.080Z,20.96
2017-03-13T04:55:54.568Z,20.91
2017-03-13T04:56:35.121Z,20.94
2017-03-13T04:57:15.545Z,20.9
2017-03-13T04:57:56.024Z,20.86
2017-03-13T04:58:36.533Z,20.86
2017-03-13T04:59:17.033Z,20.9
2017-03-13T04:59:57.543Z,20.86
2017-03-13T05:00:38.028Z,20.93
2017-03-13T05:01:18.512Z,20.85
2017-03-13T05:01:59.013Z,20.91
2017-03-13T05:02:39.841Z,20.88
2017-03-13T05:03:20.333Z,20.91
2017-03-13T05:04:00.814Z,20.82
2017-03-13T05:04:41.311Z,20.93
2017-03-13T05:05:21.792Z,20.9
2017-03-13T05:06:02.290Z,20.85
2017-03-13T05:06:42.786Z,20.83
2017-03-13T05:07:23.273Z,20.93
2017-03-13T05:08:03.782Z,20.85
2017-03-13T05:08:44.279Z,20.88
2017-03-13T05:09:24.775Z,20.91
2017-03-13T05:10:05.259Z,20.9
2017-03-13T05:10:45.756Z,20.88
2017-03-13T05:11:26.240Z,20.91
2017-03-13T05:12:06.739Z,20.9
2017-03-13T05:12:48.172Z,20.94
2017-03-13T05:13:28.685Z,20.91
2017-03-13T05:14:09.166Z,20.93
2017-03-13T05:14:49.677Z,20.9
2017-03-13T05:15:30.155Z,20.97
2017-03-13T05:16:10.641Z,20.94
2017-03-13T05:16:51.123Z,20.91
2017-03-13T05:17:31.612Z,20.94
2017-03-13T05:18:12.377Z,20.9
2017-03-13T05:18:52.875Z,20.88
2017-03-13T05:19:33.360Z,20.93
2017-03-13T05:20:13.849Z,20.85
2017-03-13T05:20:54.358Z,20.93
2017-03-13T05:21:34.844Z,20.93
2017-03-13T05:22:16.281Z,20.88
2017-03-13T05:22:56.764Z,20.83
2017-03-13T05:23:37.633Z,20.91
2017-03-13T05:24:18.128Z,20.93
2017-03-13T05:24:58.613Z,20.9
2017-03-13T05:25:39.102Z,20.93
2017-03-13T05:26:19.572Z,20.93
2017-03-13T05:27:00.060Z,20.93
2017-03-13T05:27:40.578Z,20.93
2017-03-13T05:28:21.036Z,20.93
2017-03-13T05:29:01.515Z,20.96
2017-03-13T05:29:41.993Z,20.94
2017-03-13T05:30:22.485Z,20.96
2017-03-13T05:31:02.963Z,20.94
2017-03-13T05:31:43.467Z,20.98
2017-03-13T05:32:24.497Z,20.88
2017-03-13T05:33:04.983Z,20.93
2017-03-13T05:33:45.475Z,20.9
2017-03-13T05:34:25.958Z,20.94
2017-03-13T05:35:06.448Z,20.85
2017-03-13T05:35:46.929Z,20.86
2017-03-13T05:36:27.406Z,20.85
2017-03-13T05:37:07.894Z,20.94
2017-03-13T05:37:48.418Z,20.91
2017-03-13T05:38:28.910Z,20.9
2017-03-13T05:39:09.395Z,20.96
2017-03-13T05:39:49.874Z,20.9
2017-03-13T05:40:30.354Z,20.94
2017-03-13T05:41:10.917Z,20.96
2017-03-13T05:41:51.626Z,20.97
2017-03-13T05:42:32.124Z,20.96
2017-03-13T05:43:12.620Z,20.93
2017-03-13T05:43:53.107Z,20.94
2017-03-13T05:44:35.945Z,20.96
2017-03-13T05:45:16.438Z,20.93
2017-03-13T05:45:57.733Z,20.94
2017-03-13T05:46:39.503Z,20.94
2017-03-13T05:47:21.757Z,20.91
2017-03-13T05:48:02.461Z,20.93
2017-03-13T05:48:44.383Z,20.94
2017-03-13T05:49:24.862Z,20.93
2017-03-13T05:50:05.469Z,20.97
2017-03-13T05:50:46.953Z,20.94
2017-03-13T05:51:30.326Z,20.96
2017-03-13T05:52:08.487Z,20.97
2017-03-13T05:52:48.975Z,20.98
2017-03-13T05:53:29.459Z,21
2017-03-13T05:54:10.340Z,20.94
2017-03-13T05:54:50.838Z,20.94
2017-03-13T05:55:31.334Z,21
2017-03-13T05:56:11.824Z,20.98
2017-03-13T05:56:52.327Z,20.98
2017-03-13T05:57:33.727Z,20.91
2017-03-13T05:58:14.239Z,20.91
2017-03-13T05:58:54.758Z,20.98
2017-03-13T05:59:35.438Z,20.98
2017-03-13T06:00:15.922Z,20.94
2017-03-13T06:00:56.415Z,20.98
2017-03-13T06:01:36.983Z,20.93
2017-03-13T06:02:17.578Z,20.98
2017-03-13T06:02:58.099Z,21.01
2017-03-13T06:03:38.587Z,21.11
2017-03-13T06:04:19.148Z,20.97
2017-03-13T06:04:59.637Z,21
2017-03-13T06:05:40.139Z,20.96
2017-03-13T06:06:20.635Z,21.06
2017-03-13T06:07:01.110Z,21.06
2017-03-13T06:07:41.599Z,21.08
2017-03-13T06:08:22.083Z,21.15
2017-03-13T06:09:02.575Z,21.01
2017-03-13T06:09:43.080Z,21.11
2017-03-13T06:10:23.568Z,21.09
2017-03-13T06:11:04.054Z,21.09
2017-03-13T06:11:44.551Z,21.08
2017-03-13T06:12:25.042Z,21.09
2017-03-13T06:13:05.524Z,21
2017-03-13T06:13:46.012Z,21.11
2017-03-13T06:14:26.502Z,21.08
2017-03-13T06:15:06.998Z,21.12
2017-03-13T06:15:47.484Z,21.15
2017-03-13T06:16:27.974Z,20.98
2017-03-13T06:17:08.468Z,21.13
2017-03-13T06:17:48.968Z,21.01
2017-03-13T06:18:29.448Z,21.11
2017-03-13T06:19:09.948Z,21.06
2017-03-13T06:19:50.443Z,21.12
2017-03-13T06:20:30.932Z,21.11
2017-03-13T06:21:11.417Z,21.16
2017-03-13T06:21:51.902Z,21.18
2017-03-13T06:22:32.393Z,21.11
2017-03-13T06:23:12.891Z,21.19
2017-03-13T06:23:53.375Z,21.08
2017-03-13T06:24:33.883Z,21.11
2017-03-13T06:25:14.374Z,21.18
2017-03-13T06:25:54.883Z,21.13
2017-03-13T06:26:35.378Z,21.18
2017-03-13T06:27:15.865Z,21.19
2017-03-13T06:27:56.348Z,21.22
2017-03-13T06:28:36.854Z,21.25
2017-03-13T06:29:17.333Z,21.22
2017-03-13T06:29:57.835Z,21.28
2017-03-13T06:30:38.327Z,21.36
2017-03-13T06:31:18.821Z,21.3
2017-03-13T06:31:59.304Z,21.31
2017-03-13T06:32:39.806Z,21.36
2017-03-13T06:33:20.300Z,21.33
2017-03-13T06:34:00.780Z,21.33
2017-03-13T06:34:41.474Z,21.38
2017-03-13T06:35:21.979Z,21.37
2017-03-13T06:36:02.478Z,21.37
2017-03-13T06:36:42.978Z,21.48
2017-03-13T06:37:23.468Z,21.49
2017-03-13T06:38:03.950Z,21.41
2017-03-13T06:38:44.449Z,21.51
2017-03-13T06:39:24.944Z,21.49
2017-03-13T06:40:05.430Z,21.46
2017-03-13T06:40:45.921Z,21.53
2017-03-13T06:41:26.424Z,21.46
2017-03-13T06:42:06.917Z,21.62
2017-03-13T06:42:47.422Z,21.56
2017-03-13T06:43:27.916Z,21.62
2017-03-13T06:44:08.422Z,21.59
2017-03-13T06:44:48.922Z,21.64
2017-03-13T06:45:29.418Z,21.74
2017-03-13T06:46:09.910Z,21.74
2017-03-13T06:46:51.240Z,21.8
2017-03-13T06:47:31.740Z,21.76
2017-03-13T06:48:12.219Z,21.78
2017-03-13T06:48:52.705Z,21.83
2017-03-13T06:49:33.205Z,21.82
2017-03-13T06:50:13.696Z,21.89
2017-03-13T06:50:54.207Z,21.89
2017-03-13T06:51:34.691Z,21.94
2017-03-13T06:52:15.187Z,21.93
2017-03-13T06:52:55.687Z,21.92
2017-03-13T06:53:36.181Z,21.85
2017-03-13T06:54:16.681Z,21.99
2017-03-13T06:54:57.177Z,22.05
2017-03-13T06:55:37.644Z,22.12
2017-03-13T06:56:18.128Z,22.12
2017-03-13T06:56:58.611Z,22.11
2017-03-13T06:57:39.104Z,22.07
2017-03-13T06:58:19.611Z,22.07
2017-03-13T06:59:00.078Z,22.14
2017-03-13T06:59:40.571Z,22.16
2017-03-13T07:00:21.066Z,22.08
2017-03-13T07:01:01.572Z,22.09
2017-03-13T07:01:42.039Z,22.14
2017-03-13T07:02:22.540Z,22.14
2017-03-13T07:03:03.038Z,22.05
2017-03-13T07:03:43.523Z,22.14
2017-03-13T07:04:24.017Z,22.27
2017-03-13T07:05:04.506Z,22.31
2017-03-13T07:05:45.014Z,22.29
2017-03-13T07:06:25.511Z,22.23
2017-03-13T07:07:06.002Z,22.33
2017-03-13T07:07:46.486Z,22.23
2017-03-13T07:08:26.983Z,22.33
2017-03-13T07:09:07.473Z,22.33
2017-03-13T07:09:47.979Z,22.33
2017-03-13T07:10:28.640Z,22.33
2017-03-13T07:11:09.103Z,22.26
2017-03-13T07:11:49.600Z,22.22
2017-03-13T07:12:30.111Z,22.24
2017-03-13T07:13:10.606Z,22.24
2017-03-13T07:13:51.109Z,22.24
2017-03-13T07:14:31.601Z,22.27
2017-03-13T07:15:12.089Z,22.14
2017-03-13T07:15:52.581Z,22.24
2017-03-13T07:16:33.087Z,22.11
2017-03-13T07:17:13.572Z,22.12
2017-03-13T07:17:54.073Z,22.11
2017-03-13T07:18:34.553Z,22.11
2017-03-13T07:19:15.069Z,22.12
2017-03-13T07:19:55.549Z,22.15
2017-03-13T07:20:36.052Z,22.11
2017-03-13T07:21:16.552Z,22.14
2017-03-13T07:21:57.036Z,22.14
2017-03-13T07:22:37.523Z,22.24
2017-03-13T07:23:18.007Z,22.14
2017-03-13T07:23:58.500Z,22.2
2017-03-13T07:24:38.998Z,22.18
2017-03-13T07:25:19.487Z,22.09
2017-03-13T07:25:59.970Z,22.14
2017-03-13T07:26:44.804Z,22.07
2017-03-13T07:27:23.544Z,22.23
2017-03-13T07:28:04.012Z,22.09
2017-03-13T07:28:44.606Z,22.14
2017-03-13T07:29:26.775Z,22.14
2017-03-13T07:30:06.343Z,22.16
2017-03-13T07:30:46.846Z,22.15
2017-03-13T07:31:27.977Z,22.14
2017-03-13T07:32:08.473Z,22.16
2017-03-13T07:32:48.984Z,22.2
2017-03-13T07:33:29.660Z,22.26
2017-03-13T07:34:10.167Z,22.09
2017-03-13T07:34:50.761Z,22.09
2017-03-13T07:35:31.265Z,22.09
2017-03-13T07:36:12.263Z,22.11
2017-03-13T07:36:52.259Z,22.11
2017-03-13T07:37:32.742Z,22.11
2017-03-13T07:38:13.233Z,22.08
2017-03-13T07:38:53.707Z,22.22
2017-03-13T07:39:34.215Z,22.12
2017-03-13T07:40:14.704Z,22.11
2017-03-13T07:40:55.188Z,22.08
2017-03-13T07:41:35.687Z,22.08
2017-03-13T07:42:16.182Z,22.22
2017-03-13T07:42:56.667Z,22.12
2017-03-13T07:43:38.000Z,22.09
2017-03-13T07:44:18.490Z,22.09
2017-03-13T07:44:58.975Z,22.11
2017-03-13T07:45:39.518Z,22.16
2017-03-13T07:46:20.001Z,22.09
2017-03-13T07:47:00.485Z,22.16
2017-03-13T07:47:40.987Z,22.22
2017-03-13T07:48:21.489Z,22.15
2017-03-13T07:49:01.978Z,22.09
2017-03-13T07:49:42.483Z,22.08
2017-03-13T07:50:22.931Z,22.12
2017-03-13T07:51:03.412Z,22.05
2017-03-13T07:51:43.884Z,22.12
2017-03-13T07:52:24.328Z,22.11
2017-03-13T07:53:04.799Z,22.12
2017-03-13T07:53:45.259Z,22.11
2017-03-13T07:54:25.769Z,22.07
2017-03-13T07:55:06.259Z,22.12
2017-03-13T07:55:46.752Z,22.15
2017-03-13T07:56:27.190Z,22.07
2017-03-13T07:57:07.662Z,22.14
2017-03-13T07:57:48.133Z,22.18
2017-03-13T07:58:28.631Z,22.18
2017-03-13T07:59:09.124Z,22.14
2017-03-13T07:59:49.619Z,22.23
2017-03-13T08:00:30.099Z,22.27
2017-03-13T08:01:11.260Z,22.27
2017-03-13T08:01:51.749Z,22.29
2017-03-13T08:02:32.253Z,22.34
2017-03-13T08:03:12.735Z,22.27
2017-03-13T08:03:53.228Z,22.29
2017-03-13T08:04:33.712Z,22.39
2017-03-13T08:05:14.191Z,22.34
2017-03-13T08:05:54.757Z,22.34
2017-03-13T08:06:35.252Z,22.23
2017-03-13T08:07:16.418Z,22.23
2017-03-13T08:07:56.907Z,22.34
2017-03-13T08:08:37.403Z,22.27
2017-03-13T08:09:17.883Z,22.29
2017-03-13T08:09:58.422Z,22.33
2017-03-13T08:10:38.907Z,22.26
2017-03-13T08:11:19.398Z,22.38
2017-03-13T08:11:59.887Z,22.22
2017-03-13T08:12:41.216Z,22.34
2017-03-13T08:13:21.706Z,22.3
2017-03-13T08:14:02.152Z,22.27
2017-03-13T08:14:42.654Z,22.38
2017-03-13T08:15:23.139Z,22.41
2017-03-13T08:16:03.606Z,22.39
2017-03-13T08:16:44.086Z,22.39
2017-03-13T08:17:24.573Z,22.41
2017-03-13T08:18:05.073Z,22.44
2017-03-13T08:18:45.574Z,22.42
2017-03-13T08:19:26.058Z,22.49
2017-03-13T08:20:07.456Z,22.52
2017-03-13T08:20:47.944Z,22.51
2017-03-13T08:21:28.679Z,22.51
2017-03-13T08:22:09.177Z,22.48
2017-03-13T08:22:49.661Z,22.51
2017-03-13T08:23:30.175Z,22.55
2017-03-13T08:24:10.665Z,22.57
2017-03-13T08:24:51.176Z,22.57
2017-03-13T08:25:31.675Z,22.52
2017-03-13T08:26:12.176Z,22.57
2017-03-13T08:26:52.671Z,22.55
2017-03-13T08:27:33.172Z,22.54
2017-03-13T08:28:13.659Z,22.55
2017-03-13T08:28:54.144Z,22.6
2017-03-13T08:29:35.562Z,22.6
2017-03-13T08:30:16.065Z,22.67
2017-03-13T08:30:56.565Z,22.67
2017-03-13T08:31:37.058Z,22.7
2017-03-13T08:32:17.571Z,22.67
2017-03-13T08:32:58.057Z,22.71
2017-03-13T08:33:38.558Z,22.75
2017-03-13T08:34:19.029Z,22.79
2017-03-13T08:35:00.302Z,22.84
2017-03-13T08:35:40.812Z,22.92
2017-03-13T08:36:21.326Z,22.91
2017-03-13T08:37:01.805Z,22.81
2017-03-13T08:37:42.298Z,22.92
2017-03-13T08:38:23.319Z,22.97
2017-03-13T08:39:03.395Z,22.89
2017-03-13T08:39:43.903Z,22.99
2017-03-13T08:40:24.386Z,23.01
2017-03-13T08:41:04.873Z,22.92
2017-03-13T08:41:45.360Z,22.96
2017-03-13T08:42:25.850Z,22.92
2017-03-13T08:43:06.346Z,22.94
2017-03-13T08:43:46.860Z,22.97
2017-03-13T08:44:27.341Z,23
2017-03-13T08:45:07.842Z,22.91